createdAt,value
2019-06-15T00:00:14.844Z,7.97
2019-06-15T00:02:43.861Z,8.13
2019-06-15T00:05:13.061Z,7.80
2019-06-15T00:07:42.076Z,7.90
2019-06-15T00:10:11.270Z,6.83
2019-06-15T00:12:40.637Z,9.70
2019-06-15T00:15:09.857Z,7.53
2019-06-15T00:17:38.949Z,8.07
2019-06-15T00:20:08.594Z,8.50
2019-06-15T00:22:37.596Z,7.77
2019-06-15T00:25:07.923Z,7.57
2019-06-15T00:27:36.956Z,9.63
2019-06-15T00:30:08.522Z,8.33
2019-06-15T00:32:37.618Z,8.10
2019-06-15T00:35:08.928Z,8.17
2019-06-15T00:37:38.005Z,7.97
2019-06-15T00:40:09.659Z,8.30
2019-06-15T00:42:38.963Z,7.83
2019-06-15T00:45:09.301Z,8.97
2019-06-15T00:47:38.408Z,8.33
2019-06-15T00:50:07.893Z,7.97
2019-06-15T00:52:36.949Z,10.30
2019-06-15T00:55:07.128Z,8.90
2019-06-15T00:57:37.008Z,9.57
2019-06-15T01:00:07.740Z,9.67
2019-06-15T01:02:36.809Z,10.37
2019-06-15T01:05:07.642Z,9.80
2019-06-15T01:07:36.707Z,10.07
2019-06-15T01:10:07.577Z,8.90
2019-06-15T01:12:36.688Z,8.13
2019-06-15T01:15:06.577Z,8.90
2019-06-15T01:17:35.889Z,8.70
2019-06-15T01:20:07.203Z,8.93
2019-06-15T01:22:36.489Z,8.17
2019-06-15T01:25:10.169Z,8.47
2019-06-15T01:27:40.152Z,9.33
2019-06-15T01:30:11.202Z,9.30
2019-06-15T01:32:40.393Z,10.33
2019-06-15T01:35:09.661Z,9.93
2019-06-15T01:37:38.783Z,9.73
2019-06-15T01:40:09.521Z,10.30
2019-06-15T01:42:39.027Z,10.20
2019-06-15T01:45:09.912Z,10.03
2019-06-15T01:47:39.105Z,9.87
2019-06-15T01:50:09.072Z,9.70
2019-06-15T01:52:38.464Z,10.03
2019-06-15T01:55:20.125Z,9.57
2019-06-15T01:57:39.169Z,9.47
2019-06-15T02:00:09.901Z,10.47
2019-06-15T02:02:39.225Z,11.47
2019-06-15T02:05:09.191Z,10.80
2019-06-15T02:07:38.284Z,10.83
2019-06-15T02:10:10.082Z,11.57
2019-06-15T02:12:39.291Z,12.20
2019-06-15T02:15:09.184Z,11.03
2019-06-15T02:17:38.251Z,10.97
2019-06-15T02:20:08.345Z,11.03
2019-06-15T02:22:37.493Z,10.77
2019-06-15T02:25:07.827Z,11.30
2019-06-15T02:27:37.104Z,11.97
2019-06-15T02:30:07.807Z,13.10
2019-06-15T02:32:36.977Z,12.43
2019-06-15T02:35:06.967Z,11.97
2019-06-15T02:37:36.045Z,11.57
2019-06-15T02:40:07.621Z,11.47
2019-06-15T02:42:36.656Z,12.63
2019-06-15T02:45:07.986Z,12.83
2019-06-15T02:47:37.034Z,13.23
2019-06-15T02:50:10.476Z,11.63
2019-06-15T02:52:39.789Z,12.63
2019-06-15T02:55:09.195Z,12.37
2019-06-15T02:57:38.334Z,12.03
2019-06-15T03:00:09.401Z,11.60
2019-06-15T03:02:39.014Z,12.87
2019-06-15T03:05:09.011Z,12.80
2019-06-15T03:07:38.315Z,12.57
2019-06-15T03:10:08.817Z,13.90
2019-06-15T03:12:38.715Z,13.27
2019-06-15T03:15:09.711Z,14.77
2019-06-15T03:17:38.792Z,21.30
2019-06-15T03:20:08.876Z,12.13
2019-06-15T03:22:38.138Z,12.60
2019-06-15T03:25:12.084Z,16.37
2019-06-15T03:27:41.169Z,13.67
2019-06-15T03:30:11.431Z,14.63
2019-06-15T03:32:40.514Z,13.97
2019-06-15T03:35:10.887Z,13.37
2019-06-15T03:37:40.229Z,13.97
2019-06-15T03:40:09.805Z,14.30
2019-06-15T03:42:38.934Z,14.63
2019-06-15T03:45:09.728Z,12.87
2019-06-15T03:47:39.058Z,11.27
2019-06-15T03:50:08.760Z,15.77
2019-06-15T03:52:37.820Z,13.53
2019-06-15T03:55:07.920Z,8.30
2019-06-15T03:57:36.955Z,8.43
2019-06-15T04:00:09.040Z,9.77
2019-06-15T04:02:38.473Z,8.97
2019-06-15T04:05:07.755Z,9.70
2019-06-15T04:07:37.351Z,10.03
2019-06-15T04:10:07.683Z,11.17
2019-06-15T04:12:36.990Z,9.63
2019-06-15T04:15:06.531Z,10.03
2019-06-15T04:17:35.648Z,8.90
2019-06-15T04:20:05.612Z,10.43
2019-06-15T04:22:34.676Z,9.57
2019-06-15T04:25:05.708Z,10.87
2019-06-15T04:27:35.078Z,10.47
2019-06-15T04:30:06.522Z,10.43
2019-06-15T04:32:35.602Z,10.33
2019-06-15T04:35:06.474Z,12.77
2019-06-15T04:37:36.327Z,9.57
2019-06-15T04:40:06.802Z,11.20
2019-06-15T04:42:35.854Z,12.63
2019-06-15T04:45:06.239Z,10.03
2019-06-15T04:47:35.294Z,19.53
2019-06-15T04:50:06.339Z,11.70
2019-06-15T04:52:35.412Z,9.73
2019-06-15T04:55:07.181Z,10.53
2019-06-15T04:57:36.218Z,14.23
2019-06-15T05:00:12.155Z,9.93
2019-06-15T05:02:41.265Z,9.83
2019-06-15T05:05:10.911Z,10.17
2019-06-15T05:07:40.466Z,8.27
2019-06-15T05:10:10.297Z,11.10
2019-06-15T05:12:39.616Z,13.17
2019-06-15T05:15:11.122Z,10.03
2019-06-15T05:17:40.206Z,17.27
2019-06-15T05:20:10.308Z,18.73
2019-06-15T05:22:39.347Z,15.60
2019-06-15T05:25:08.666Z,10.20
2019-06-15T05:27:38.095Z,17.83
2019-06-15T05:30:11.272Z,19.43
2019-06-15T05:32:40.517Z,10.67
2019-06-15T05:35:10.447Z,17.73
2019-06-15T05:37:39.817Z,14.60
2019-06-15T05:40:09.634Z,20.13
2019-06-15T05:42:38.865Z,15.80
2019-06-15T05:45:08.464Z,29.90
2019-06-15T05:47:37.614Z,17.70
2019-06-15T05:50:08.127Z,18.47
2019-06-15T05:52:37.432Z,19.70
2019-06-15T05:55:08.521Z,29.53
2019-06-15T05:57:38.596Z,14.23
2019-06-15T06:00:11.627Z,16.57
2019-06-15T06:02:40.690Z,15.93
2019-06-15T06:05:11.292Z,11.57
2019-06-15T06:07:40.407Z,9.27
2019-06-15T06:10:11.028Z,9.73
2019-06-15T06:12:40.615Z,11.70
2019-06-15T06:15:10.399Z,10.27
2019-06-15T06:17:42.255Z,17.23
2019-06-15T06:20:11.444Z,10.73
2019-06-15T06:22:40.572Z,8.37
2019-06-15T06:25:11.175Z,8.17
2019-06-15T06:27:40.302Z,6.93
2019-06-15T06:30:11.304Z,7.40
2019-06-15T06:32:40.545Z,8.10
2019-06-15T06:35:10.503Z,6.83
2019-06-15T06:37:39.661Z,7.47
2019-06-15T06:40:12.878Z,7.17
2019-06-15T06:42:41.939Z,8.90
2019-06-15T06:45:12.274Z,7.03
2019-06-15T06:47:41.834Z,6.43
2019-06-15T06:50:13.037Z,6.90
2019-06-15T06:52:42.094Z,7.23
2019-06-15T06:55:11.770Z,6.80
2019-06-15T06:57:51.770Z,6.07
2019-06-15T07:00:15.569Z,6.23
2019-06-15T07:02:44.639Z,7.23
2019-06-15T07:05:14.006Z,6.80
2019-06-15T07:07:43.061Z,7.10
2019-06-15T07:10:13.028Z,6.67
2019-06-15T07:12:42.093Z,7.23
2019-06-15T07:15:11.889Z,6.23
2019-06-15T07:17:40.954Z,8.37
2019-06-15T07:20:12.955Z,6.50
2019-06-15T07:22:42.151Z,6.50
2019-06-15T07:25:11.546Z,5.67
2019-06-15T07:27:40.666Z,5.53
2019-06-15T07:30:11.370Z,6.97
2019-06-15T07:32:40.590Z,6.10
2019-06-15T07:35:10.356Z,6.07
2019-06-15T07:37:39.658Z,5.57
2019-06-15T07:40:09.946Z,8.67
2019-06-15T07:42:39.677Z,7.57
2019-06-15T07:45:09.691Z,6.30
2019-06-15T07:47:38.762Z,5.30
2019-06-15T07:50:09.661Z,5.50
2019-06-15T07:52:39.019Z,5.43
2019-06-15T07:55:08.521Z,4.60
2019-06-15T07:57:37.659Z,6.07
2019-06-15T08:00:11.091Z,4.40
2019-06-15T08:02:40.111Z,5.57
2019-06-15T08:05:09.671Z,5.80
2019-06-15T08:07:38.843Z,7.13
2019-06-15T08:10:09.038Z,4.43
2019-06-15T08:12:38.250Z,5.67
2019-06-15T08:15:09.129Z,4.40
2019-06-15T08:17:38.650Z,5.13
2019-06-15T08:20:16.073Z,6.57
2019-06-15T08:22:45.593Z,16.70
2019-06-15T08:25:14.746Z,6.47
2019-06-15T08:27:43.944Z,4.07
2019-06-15T08:30:14.108Z,5.57
2019-06-15T08:32:43.231Z,5.73
2019-06-15T08:35:13.113Z,7.00
2019-06-15T08:37:42.307Z,6.47
2019-06-15T08:40:12.081Z,3.63
2019-06-15T08:42:41.127Z,6.83
2019-06-15T08:45:11.097Z,2.93
2019-06-15T08:47:40.218Z,3.03
2019-06-15T08:50:10.097Z,2.57
2019-06-15T08:52:39.224Z,2.97
2019-06-15T08:55:09.089Z,2.00
2019-06-15T08:57:40.392Z,1.57
2019-06-15T09:00:09.715Z,2.23
2019-06-15T09:02:38.895Z,1.57
2019-06-15T09:05:09.421Z,2.00
2019-06-15T09:07:38.476Z,1.53
2019-06-15T09:10:10.612Z,1.93
2019-06-15T09:12:39.758Z,1.77
2019-06-15T09:15:10.300Z,2.30
2019-06-15T09:17:39.415Z,6.27
2019-06-15T09:20:11.029Z,5.60
2019-06-15T09:22:40.031Z,3.93
2019-06-15T09:25:09.490Z,2.50
2019-06-15T09:27:38.620Z,2.97
2019-06-15T09:30:08.047Z,4.33
2019-06-15T09:32:37.307Z,5.73
2019-06-15T09:35:09.502Z,4.20
2019-06-15T09:37:38.541Z,3.53
2019-06-15T09:40:08.358Z,2.67
2019-06-15T09:42:37.478Z,1.90
2019-06-15T09:45:08.084Z,2.53
2019-06-15T09:47:37.197Z,2.20
2019-06-15T09:50:06.771Z,2.63
2019-06-15T09:52:35.849Z,3.03
2019-06-15T09:55:06.600Z,2.07
2019-06-15T09:57:35.689Z,2.77
2019-06-15T10:00:09.815Z,2.43
2019-06-15T10:02:39.480Z,2.60
2019-06-15T10:05:09.021Z,3.10
2019-06-15T10:07:38.046Z,1.93
2019-06-15T10:10:08.128Z,2.43
2019-06-15T10:12:37.321Z,2.30
2019-06-15T10:15:10.109Z,6.57
2019-06-15T10:17:39.317Z,5.20
2019-06-15T10:20:10.775Z,1.90
2019-06-15T10:22:40.093Z,1.97
2019-06-15T10:25:09.755Z,2.97
2019-06-15T10:27:38.805Z,2.03
2019-06-15T10:30:10.197Z,2.30
2019-06-15T10:32:39.772Z,3.27
2019-06-15T10:35:09.580Z,2.20
2019-06-15T10:37:38.681Z,2.80
2019-06-15T10:40:09.470Z,2.20
2019-06-15T10:42:38.536Z,2.10
2019-06-15T10:45:08.628Z,2.20
2019-06-15T10:47:38.009Z,3.07
2019-06-15T10:50:08.196Z,2.03
2019-06-15T10:52:37.474Z,2.30
2019-06-15T10:55:08.395Z,2.27
2019-06-15T10:57:37.469Z,2.60
2019-06-15T11:00:11.659Z,1.83
2019-06-15T11:02:41.035Z,3.93
2019-06-15T11:05:12.027Z,2.10
2019-06-15T11:07:41.161Z,2.80
2019-06-15T11:10:13.149Z,3.40
2019-06-15T11:12:46.611Z,2.03
2019-06-15T11:15:14.402Z,2.87
2019-06-15T11:17:43.883Z,2.00
2019-06-15T11:20:12.092Z,2.30
2019-06-15T11:22:40.920Z,2.57
2019-06-15T11:25:10.200Z,2.60
2019-06-15T11:27:39.327Z,2.50
2019-06-15T11:30:13.695Z,3.10
2019-06-15T11:32:39.947Z,4.20
2019-06-15T11:35:09.600Z,4.80
2019-06-15T11:37:38.686Z,2.50
2019-06-15T11:40:08.594Z,3.23
2019-06-15T11:42:37.868Z,2.60
2019-06-15T11:45:07.764Z,3.43
2019-06-15T11:47:36.902Z,2.50
2019-06-15T11:50:11.753Z,2.43
2019-06-15T11:52:39.151Z,6.20
2019-06-15T11:55:08.740Z,2.60
2019-06-15T11:57:37.764Z,2.67
2019-06-15T12:00:07.944Z,4.33
2019-06-15T12:02:37.035Z,2.40
2019-06-15T12:05:07.934Z,2.70
2019-06-15T12:07:37.079Z,2.53
2019-06-15T12:10:07.779Z,2.40
2019-06-15T12:12:36.831Z,3.20
2019-06-15T12:15:07.205Z,2.20
2019-06-15T12:17:36.245Z,2.40
2019-06-15T12:20:06.513Z,2.97
2019-06-15T12:22:35.627Z,3.83
2019-06-15T12:25:06.240Z,2.57
2019-06-15T12:27:35.338Z,3.10
2019-06-15T12:30:07.489Z,2.10
2019-06-15T12:32:36.544Z,3.73
2019-06-15T12:35:07.332Z,2.90
2019-06-15T12:37:36.684Z,4.00
2019-06-15T12:40:06.781Z,2.53
2019-06-15T12:42:35.905Z,2.87
2019-06-15T12:45:05.773Z,3.57
2019-06-15T12:47:35.547Z,5.73
2019-06-15T12:50:06.115Z,3.67
2019-06-15T12:52:35.225Z,2.83
2019-06-15T12:55:05.406Z,3.63
2019-06-15T12:57:34.476Z,3.63
2019-06-15T13:00:05.600Z,3.20
2019-06-15T13:02:34.720Z,2.83
2019-06-15T13:05:05.857Z,3.30
2019-06-15T13:07:34.890Z,2.90
2019-06-15T13:10:05.662Z,3.20
2019-06-15T13:12:35.128Z,3.90
2019-06-15T13:15:05.425Z,3.83
2019-06-15T13:17:34.455Z,4.27
2019-06-15T13:20:05.444Z,4.10
2019-06-15T13:22:34.520Z,3.43
2019-06-15T13:25:05.879Z,12.37
2019-06-15T13:27:34.887Z,3.53
2019-06-15T13:30:06.691Z,3.30
2019-06-15T13:32:35.700Z,3.10
2019-06-15T13:35:07.908Z,3.50
2019-06-15T13:37:41.980Z,3.97
2019-06-15T13:40:08.677Z,3.17
2019-06-15T13:42:37.688Z,3.33
2019-06-15T13:45:07.357Z,3.40
2019-06-15T13:47:36.497Z,3.93
2019-06-15T13:50:07.399Z,4.23
2019-06-15T13:52:36.716Z,3.53
2019-06-15T13:55:06.808Z,3.60
2019-06-15T13:57:36.318Z,6.33
2019-06-15T14:00:09.283Z,5.53
2019-06-15T14:02:38.354Z,3.40
2019-06-15T14:05:08.116Z,4.17
2019-06-15T14:07:37.161Z,4.37
2019-06-15T14:10:10.198Z,4.73
2019-06-15T14:12:39.242Z,5.97
2019-06-15T14:15:09.127Z,3.50
2019-06-15T14:17:39.960Z,5.37
2019-06-15T14:20:09.715Z,3.90
2019-06-15T14:22:38.771Z,3.83
2019-06-15T14:25:08.906Z,5.80
2019-06-15T14:27:37.907Z,4.70
2019-06-15T14:30:08.331Z,2.83
2019-06-15T14:32:37.770Z,3.33
2019-06-15T14:35:08.941Z,3.87
2019-06-15T14:37:38.118Z,3.67
2019-06-15T14:40:07.679Z,3.43
2019-06-15T14:42:36.733Z,4.17
2019-06-15T14:45:07.290Z,3.70
2019-06-15T14:47:36.484Z,4.00
2019-06-15T14:50:07.169Z,3.20
2019-06-15T14:52:36.181Z,3.67
2019-06-15T14:55:07.235Z,12.33
2019-06-15T14:57:36.507Z,5.63
2019-06-15T15:00:08.848Z,13.37
2019-06-15T15:02:38.265Z,4.00
2019-06-15T15:05:07.844Z,5.90
2019-06-15T15:07:37.116Z,8.40
2019-06-15T15:10:10.189Z,4.93
2019-06-15T15:12:41.638Z,3.50
2019-06-15T15:15:10.292Z,3.87
2019-06-15T15:17:39.306Z,4.10
2019-06-15T15:20:09.204Z,5.23
2019-06-15T15:22:38.422Z,3.33
2019-06-15T15:25:08.191Z,4.27
2019-06-15T15:27:37.697Z,5.17
2019-06-15T15:30:09.512Z,5.70
2019-06-15T15:32:38.570Z,3.30
2019-06-15T15:35:07.853Z,3.60
2019-06-15T15:37:37.286Z,15.17
2019-06-15T15:40:07.479Z,5.43
2019-06-15T15:42:37.323Z,7.00
2019-06-15T15:45:08.426Z,5.70
2019-06-15T15:47:37.483Z,7.07
2019-06-15T15:50:07.941Z,4.97
2019-06-15T15:52:37.757Z,3.53
2019-06-15T15:55:09.771Z,3.37
2019-06-15T15:57:38.817Z,3.97
2019-06-15T16:00:08.711Z,10.87
2019-06-15T16:02:48.205Z,4.97
2019-06-15T16:05:09.182Z,5.13
2019-06-15T16:07:40.308Z,9.30
2019-06-15T16:10:09.622Z,4.90
2019-06-15T16:12:38.853Z,4.47
2019-06-15T16:15:09.366Z,4.20
2019-06-15T16:17:38.480Z,5.53
2019-06-15T16:20:10.606Z,4.73
2019-06-15T16:22:39.878Z,5.20
2019-06-15T16:25:09.227Z,3.93
2019-06-15T16:27:38.258Z,3.93
2019-06-15T16:30:08.668Z,5.17
2019-06-15T16:32:37.677Z,3.87
2019-06-15T16:35:07.899Z,3.20
2019-06-15T16:37:37.088Z,5.13
2019-06-15T16:40:07.671Z,4.00
2019-06-15T16:42:36.891Z,4.70
2019-06-15T16:45:07.839Z,4.83
2019-06-15T16:47:38.769Z,5.07
2019-06-15T16:50:08.053Z,3.67
2019-06-15T16:52:37.067Z,7.43
2019-06-15T16:55:10.907Z,5.97
2019-06-15T16:57:38.531Z,9.43
2019-06-15T17:00:20.105Z,5.10
2019-06-15T17:02:50.310Z,3.47
2019-06-15T17:05:19.994Z,3.80
2019-06-15T17:07:52.096Z,3.60
2019-06-15T17:10:30.288Z,4.57
2019-06-15T17:13:06.752Z,10.63
2019-06-15T17:15:37.843Z,4.70
2019-06-15T17:18:07.708Z,5.50
2019-06-15T17:20:48.258Z,12.33
2019-06-15T17:23:18.121Z,28.27
2019-06-15T17:25:47.519Z,11.47
2019-06-15T17:28:16.593Z,6.37
2019-06-15T17:30:45.763Z,10.87
2019-06-15T17:33:16.946Z,7.07
2019-06-15T17:35:58.419Z,5.60
2019-06-15T17:38:16.998Z,4.80
2019-06-15T17:40:46.490Z,8.73
2019-06-15T17:43:16.176Z,16.47
2019-06-15T17:45:46.898Z,6.37
2019-06-15T17:48:17.401Z,6.07
2019-06-15T17:50:47.669Z,32.60
2019-06-15T17:53:17.299Z,4.80
2019-06-15T17:55:46.890Z,19.33
2019-06-15T17:58:16.998Z,8.47
2019-06-15T18:00:48.241Z,20.23
2019-06-15T18:03:18.306Z,4.13
2019-06-15T18:05:48.470Z,6.20
2019-06-15T18:08:18.095Z,5.97
2019-06-15T18:10:48.144Z,12.20
2019-06-15T18:13:17.585Z,13.13
2019-06-15T18:15:47.575Z,16.37
2019-06-15T18:18:17.372Z,11.27
2019-06-15T18:20:46.699Z,7.63
2019-06-15T18:23:17.501Z,4.80
2019-06-15T18:25:47.093Z,4.63
2019-06-15T18:28:17.942Z,4.70
2019-06-15T18:30:50.326Z,4.90
2019-06-15T18:33:19.496Z,4.53
2019-06-15T18:35:48.584Z,7.83
2019-06-15T18:38:18.287Z,6.43
2019-06-15T18:40:48.186Z,14.17
2019-06-15T18:43:17.651Z,5.07
2019-06-15T18:45:47.616Z,17.80
2019-06-15T18:48:17.883Z,3.93
2019-06-15T18:50:47.266Z,9.13
2019-06-15T18:53:16.380Z,8.20
2019-06-15T18:55:47.339Z,18.57
2019-06-15T18:58:17.335Z,7.00
2019-06-15T19:00:47.024Z,26.00
2019-06-15T19:03:16.798Z,4.30
2019-06-15T19:05:47.364Z,3.60
2019-06-15T19:08:17.455Z,16.37
2019-06-15T19:10:47.102Z,16.33
2019-06-15T19:13:16.351Z,8.43
2019-06-15T19:15:46.869Z,10.13
2019-06-15T19:18:17.771Z,9.50
2019-06-15T19:20:47.088Z,8.37
2019-06-15T19:23:16.390Z,5.27
2019-06-15T19:25:46.948Z,5.93
2019-06-15T19:28:16.847Z,6.87
2019-06-15T19:30:47.350Z,5.03
2019-06-15T19:33:16.653Z,7.03
2019-06-15T19:35:46.477Z,7.60
2019-06-15T19:38:16.302Z,4.60
2019-06-15T19:40:46.346Z,5.97
2019-06-15T19:43:16.379Z,5.50
2019-06-15T19:45:46.089Z,4.83
2019-06-15T19:48:17.072Z,5.20
2019-06-15T19:50:46.326Z,5.70
2019-06-15T19:53:17.289Z,6.20
2019-06-15T19:55:46.915Z,5.17
2019-06-15T19:58:16.531Z,4.13
2019-06-15T20:00:46.760Z,5.30
2019-06-15T20:03:16.896Z,5.80
2019-06-15T20:05:46.324Z,4.43
2019-06-15T20:08:17.727Z,4.37
2019-06-15T20:10:47.617Z,6.10
2019-06-15T20:13:17.247Z,4.53
2019-06-15T20:15:47.047Z,5.30
2019-06-15T20:18:17.731Z,3.63
2019-06-15T20:20:47.684Z,5.87
2019-06-15T20:23:18.726Z,3.90
2019-06-15T20:25:47.861Z,6.53
2019-06-15T20:28:17.142Z,5.80
2019-06-15T20:30:47.362Z,3.90
2019-06-15T20:33:16.830Z,4.37
2019-06-15T20:35:47.422Z,3.60
2019-06-15T20:38:16.678Z,3.67
2019-06-15T20:40:47.736Z,5.17
2019-06-15T20:43:17.209Z,3.90
2019-06-15T20:45:47.914Z,5.37
2019-06-15T20:48:17.208Z,4.83
2019-06-15T20:50:47.115Z,4.80
2019-06-15T20:53:17.178Z,5.37
2019-06-15T20:55:46.992Z,4.20
2019-06-15T20:58:17.126Z,5.47
2019-06-15T21:00:47.679Z,4.47
2019-06-15T21:03:17.055Z,4.10
2019-06-15T21:05:48.371Z,5.23
2019-06-15T21:08:18.913Z,4.60
2019-06-15T21:10:49.048Z,4.10
2019-06-15T21:13:18.209Z,4.83
2019-06-15T21:15:48.013Z,4.67
2019-06-15T21:18:17.120Z,4.70
2019-06-15T21:20:47.377Z,5.30
2019-06-15T21:23:17.938Z,6.03
2019-06-15T21:25:47.679Z,5.00
2019-06-15T21:28:17.402Z,4.77
2019-06-15T21:30:47.292Z,4.10
2019-06-15T21:33:16.784Z,3.77
2019-06-15T21:35:51.649Z,6.60
2019-06-15T21:38:16.698Z,16.80
2019-06-15T21:40:47.516Z,10.67
2019-06-15T21:43:17.278Z,13.97
2019-06-15T21:45:46.495Z,5.20
2019-06-15T21:48:16.225Z,5.60
2019-06-15T21:50:47.216Z,8.40
2019-06-15T21:53:21.403Z,5.80
2019-06-15T21:55:59.241Z,5.47
2019-06-15T21:58:29.715Z,7.93
2019-06-15T22:01:26.190Z,8.27
2019-06-15T22:03:55.944Z,5.77
2019-06-15T22:06:26.272Z,4.87
2019-06-15T22:08:57.647Z,6.50
2019-06-15T22:11:27.250Z,6.53
2019-06-15T22:13:58.079Z,7.33
2019-06-15T22:16:27.674Z,5.63
2019-06-15T22:18:57.035Z,6.63
2019-06-15T22:21:28.118Z,6.60
2019-06-15T22:23:56.829Z,5.57
2019-06-15T22:26:26.803Z,5.10
2019-06-15T22:28:56.973Z,5.13
2019-06-15T22:31:27.435Z,4.73
2019-06-15T22:33:56.819Z,5.90
2019-06-15T22:36:28.457Z,6.40
2019-06-15T22:38:57.069Z,6.60
2019-06-15T22:41:26.136Z,5.20
2019-06-15T22:43:56.843Z,6.23
2019-06-15T22:46:26.353Z,5.70
2019-06-15T22:48:56.207Z,8.20
2019-06-15T22:51:27.534Z,5.77
2019-06-15T22:53:56.703Z,5.90
2019-06-15T22:56:26.386Z,5.47
2019-06-15T22:58:56.996Z,5.63
2019-06-15T23:01:26.317Z,5.47
2019-06-15T23:03:57.102Z,6.50
2019-06-15T23:06:37.406Z,4.20
2019-06-15T23:08:57.127Z,4.67
2019-06-15T23:11:26.733Z,5.00
2019-06-15T23:13:57.444Z,4.53
2019-06-15T23:16:27.530Z,4.57
2019-06-15T23:18:57.342Z,7.40
2019-06-15T23:21:27.089Z,5.93
2019-06-15T23:23:56.475Z,5.23
2019-06-15T23:26:25.983Z,4.43
2019-06-15T23:28:56.427Z,5.37
2019-06-15T23:31:25.834Z,5.57
2019-06-15T23:33:56.049Z,4.73
2019-06-15T23:36:29.885Z,4.47
2019-06-15T23:38:58.934Z,4.93
2019-06-15T23:41:28.224Z,5.63
2019-06-15T23:43:57.254Z,4.80
2019-06-15T23:46:27.107Z,5.43
2019-06-15T23:48:56.679Z,9.60
2019-06-15T23:51:26.478Z,6.87
2019-06-15T23:53:57.231Z,4.10
2019-06-15T23:56:26.460Z,7.90
2019-06-15T23:58:56.040Z,8.37
